sensor_id;sensor_type;location;lat;lon;timestamp;pressure;altitude;pressure_sealevel;temperature;humidity
23164;BME280;31429;42.674;23.350;2023-02-02T00:00:25;94864.22;;;6.01;81.40
23164;BME280;31429;42.674;23.350;2023-02-02T00:01:26;94856.69;;;5.96;77.08
23164;BME280;31429;42.674;23.350;2023-02-02T00:02:27;94868.66;;;5.90;76.08
23164;BME280;31429;42.674;23.350;2023-02-02T00:03:28;94867.91;;;5.85;77.24
23164;BME280;31429;42.674;23.350;2023-02-02T00:04:30;94863.94;;;5.68;79.17
23164;BME280;31429;42.674;23.350;2023-02-02T00:05:32;94864.88;;;5.63;82.01
23164;BME280;31429;42.674;23.350;2023-02-02T00:06:32;94873.56;;;5.48;80.47
23164;BME280;31429;42.674;23.350;2023-02-02T00:07:33;94870.13;;;5.52;86.40
23164;BME280;31429;42.674;23.350;2023-02-02T00:08:34;94869.81;;;5.70;84.29
23164;BME280;31429;42.674;23.350;2023-02-02T00:09:35;94869.78;;;5.72;78.71
23164;BME280;31429;42.674;23.350;2023-02-02T00:10:36;94863.09;;;5.68;77.09
23164;BME280;31429;42.674;23.350;2023-02-02T00:11:38;94868.09;;;5.72;81.16
23164;BME280;31429;42.674;23.350;2023-02-02T00:12:39;94859.22;;;5.98;93.42
23164;BME280;31429;42.674;23.350;2023-02-02T00:13:40;94853.44;;;5.90;80.27
23164;BME280;31429;42.674;23.350;2023-02-02T00:14:40;94855.72;;;6.02;78.88
23164;BME280;31429;42.674;23.350;2023-02-02T00:15:41;94864.50;;;5.84;78.24
23164;BME280;31429;42.674;23.350;2023-02-02T00:16:43;94857.22;;;5.67;80.75
23164;BME280;31429;42.674;23.350;2023-02-02T00:17:44;94862.81;;;5.86;84.50
23164;BME280;31429;42.674;23.350;2023-02-02T00:18:45;94858.66;;;5.80;79.31
23164;BME280;31429;42.674;23.350;2023-02-02T00:19:46;94857.81;;;5.80;75.54
23164;BME280;31429;42.674;23.350;2023-02-02T00:20:46;94858.94;;;5.64;76.76
23164;BME280;31429;42.674;23.350;2023-02-02T00:21:49;94863.28;;;5.59;77.30
23164;BME280;31429;42.674;23.350;2023-02-02T00:22:49;94861.72;;;5.99;87.88
23164;BME280;31429;42.674;23.350;2023-02-02T00:23:50;94854.94;;;6.00;77.81
23164;BME280;31429;42.674;23.350;2023-02-02T00:24:51;94852.97;;;5.66;75.39
23164;BME280;31429;42.674;23.350;2023-02-02T00:25:52;94856.78;;;5.92;83.21
23164;BME280;31429;42.674;23.350;2023-02-02T00:26:58;94858.91;;;5.67;78.05
23164;BME280;31429;42.674;23.350;2023-02-02T00:27:59;94868.00;;;5.78;81.09
23164;BME280;31429;42.674;23.350;2023-02-02T00:29:00;94856.47;;;5.59;74.75
23164;BME280;31429;42.674;23.350;2023-02-02T00:30:01;94872.81;;;5.43;84.79
23164;BME280;31429;42.674;23.350;2023-02-02T00:31:01;94871.25;;;5.36;83.81
23164;BME280;31429;42.674;23.350;2023-02-02T00:32:02;94874.59;;;5.37;80.08
23164;BME280;31429;42.674;23.350;2023-02-02T00:33:03;94868.34;;;5.59;86.14
23164;BME280;31429;42.674;23.350;2023-02-02T00:34:04;94870.94;;;5.54;79.65
23164;BME280;31429;42.674;23.350;2023-02-02T00:35:05;94876.28;;;5.39;79.04
23164;BME280;31429;42.674;23.350;2023-02-02T00:36:06;94879.75;;;5.32;77.63
23164;BME280;31429;42.674;23.350;2023-02-02T00:37:07;94873.66;;;5.42;78.66
23164;BME280;31429;42.674;23.350;2023-02-02T00:38:08;94873.81;;;5.35;78.34
23164;BME280;31429;42.674;23.350;2023-02-02T00:39:09;94883.09;;;5.34;78.41
23164;BME280;31429;42.674;23.350;2023-02-02T00:40:10;94880.59;;;5.31;77.77
23164;BME280;31429;42.674;23.350;2023-02-02T00:41:11;94886.56;;;5.29;80.54
23164;BME280;31429;42.674;23.350;2023-02-02T00:42:13;94885.53;;;5.40;79.62
23164;BME280;31429;42.674;23.350;2023-02-02T00:43:14;94886.94;;;5.56;81.21
23164;BME280;31429;42.674;23.350;2023-02-02T00:44:14;94894.50;;;5.61;82.79
23164;BME280;31429;42.674;23.350;2023-02-02T00:45:34;94885.34;;;5.52;78.50
23164;BME280;31429;42.674;23.350;2023-02-02T00:46:38;94883.56;;;5.57;76.72
23164;BME280;31429;42.674;23.350;2023-02-02T00:47:39;94887.78;;;5.57;80.00
23164;BME280;31429;42.674;23.350;2023-02-02T00:48:39;94879.91;;;5.73;81.56
23164;BME280;31429;42.674;23.350;2023-02-02T00:49:40;94879.16;;;5.68;77.96
23164;BME280;31429;42.674;23.350;2023-02-02T00:50:41;94877.97;;;5.88;79.98
23164;BME280;31429;42.674;23.350;2023-02-02T00:51:41;94876.13;;;5.97;79.15
23164;BME280;31429;42.674;23.350;2023-02-02T00:52:42;94878.09;;;5.80;75.42
23164;BME280;31429;42.674;23.350;2023-02-02T00:53:43;94880.13;;;5.61;77.74
23164;BME280;31429;42.674;23.350;2023-02-02T00:54:43;94886.16;;;5.54;74.91
23164;BME280;31429;42.674;23.350;2023-02-02T00:55:44;94888.69;;;5.54;77.66
23164;BME280;31429;42.674;23.350;2023-02-02T00:56:45;94868.84;;;5.77;86.76
23164;BME280;31429;42.674;23.350;2023-02-02T00:57:47;94874.97;;;6.13;91.90
23164;BME280;31429;42.674;23.350;2023-02-02T00:58:47;94880.19;;;6.07;80.39
23164;BME280;31429;42.674;23.350;2023-02-02T00:59:48;94869.78;;;6.21;85.22
23164;BME280;31429;42.674;23.350;2023-02-02T01:00:48;94864.34;;;5.93;80.29
23164;BME280;31429;42.674;23.350;2023-02-02T01:01:49;94871.91;;;5.98;83.61
23164;BME280;31429;42.674;23.350;2023-02-02T01:02:50;94871.06;;;5.97;81.59
23164;BME280;31429;42.674;23.350;2023-02-02T01:03:51;94865.97;;;5.97;85.09
23164;BME280;31429;42.674;23.350;2023-02-02T01:04:52;94863.69;;;5.82;83.72
23164;BME280;31429;42.674;23.350;2023-02-02T01:05:53;94867.06;;;5.82;82.99
23164;BME280;31429;42.674;23.350;2023-02-02T01:06:53;94861.13;;;5.87;88.93
23164;BME280;31429;42.674;23.350;2023-02-02T01:07:54;94861.66;;;6.02;88.99
23164;BME280;31429;42.674;23.350;2023-02-02T01:08:54;94859.56;;;5.76;82.43
23164;BME280;31429;42.674;23.350;2023-02-02T01:09:55;94859.75;;;5.67;90.61
23164;BME280;31429;42.674;23.350;2023-02-02T01:10:58;94857.25;;;5.64;86.23
23164;BME280;31429;42.674;23.350;2023-02-02T01:11:59;94851.72;;;5.92;92.75
23164;BME280;31429;42.674;23.350;2023-02-02T01:13:01;94859.44;;;5.86;90.80
23164;BME280;31429;42.674;23.350;2023-02-02T01:14:01;94851.66;;;5.93;93.92
23164;BME280;31429;42.674;23.350;2023-02-02T01:15:03;94857.97;;;5.71;88.47
23164;BME280;31429;42.674;23.350;2023-02-02T01:16:05;94854.72;;;5.64;87.95
23164;BME280;31429;42.674;23.350;2023-02-02T01:17:07;94857.31;;;5.61;89.02
23164;BME280;31429;42.674;23.350;2023-02-02T01:18:07;94855.81;;;5.48;92.65
23164;BME280;31429;42.674;23.350;2023-02-02T01:19:08;94855.06;;;5.45;91.31
23164;BME280;31429;42.674;23.350;2023-02-02T01:20:16;94858.69;;;5.30;91.88
23164;BME280;31429;42.674;23.350;2023-02-02T01:21:18;94854.56;;;5.23;91.83
23164;BME280;31429;42.674;23.350;2023-02-02T01:22:18;94857.75;;;5.34;96.30
23164;BME280;31429;42.674;23.350;2023-02-02T01:23:19;94852.44;;;5.49;96.14
23164;BME280;31429;42.674;23.350;2023-02-02T01:24:20;94849.66;;;5.63;96.16
23164;BME280;31429;42.674;23.350;2023-02-02T01:25:20;94854.31;;;5.38;91.16
23164;BME280;31429;42.674;23.350;2023-02-02T01:26:21;94849.16;;;5.44;90.79
23164;BME280;31429;42.674;23.350;2023-02-02T01:27:21;94850.69;;;5.51;90.39
23164;BME280;31429;42.674;23.350;2023-02-02T01:28:24;94853.38;;;5.44;90.74
23164;BME280;31429;42.674;23.350;2023-02-02T01:29:25;94854.88;;;5.54;98.74
23164;BME280;31429;42.674;23.350;2023-02-02T01:30:25;94846.66;;;5.40;92.33
23164;BME280;31429;42.674;23.350;2023-02-02T01:31:26;94847.84;;;5.22;97.82
23164;BME280;31429;42.674;23.350;2023-02-02T01:32:27;94842.94;;;5.10;99.68
23164;BME280;31429;42.674;23.350;2023-02-02T01:33:27;94848.28;;;4.92;95.33
23164;BME280;31429;42.674;23.350;2023-02-02T01:34:28;94846.72;;;4.83;99.41
23164;BME280;31429;42.674;23.350;2023-02-02T01:35:28;94848.66;;;4.66;97.59
23164;BME280;31429;42.674;23.350;2023-02-02T01:36:29;94851.22;;;4.63;96.90
23164;BME280;31429;42.674;23.350;2023-02-02T01:37:30;94848.84;;;4.54;98.34
23164;BME280;31429;42.674;23.350;2023-02-02T01:38:31;94831.13;;;4.52;97.60
23164;BME280;31429;42.674;23.350;2023-02-02T01:39:31;94842.13;;;4.50;99.16
23164;BME280;31429;42.674;23.350;2023-02-02T01:40:32;94848.03;;;4.50;100.00
23164;BME280;31429;42.674;23.350;2023-02-02T01:41:33;94842.19;;;4.44;100.00
23164;BME280;31429;42.674;23.350;2023-02-02T01:42:33;94845.63;;;4.41;100.00
23164;BME280;31429;42.674;23.350;2023-02-02T01:43:51;94851.34;;;4.55;98.39
23164;BME280;31429;42.674;23.350;2023-02-02T01:45:12;94838.75;;;4.49;99.20
23164;BME280;31429;42.674;23.350;2023-02-02T01:46:15;94839.06;;;4.27;100.00
23164;BME280;31429;42.674;23.350;2023-02-02T01:47:17;94838.41;;;4.11;100.00
23164;BME280;31429;42.674;23.350;2023-02-02T01:48:20;94845.25;;;4.01;100.00
23164;BME280;31429;42.674;23.350;2023-02-02T01:49:22;94842.81;;;3.94;100.00
23164;BME280;31429;42.674;23.350;2023-02-02T01:50:25;94833.53;;;3.96;100.00
23164;BME280;31429;42.674;23.350;2023-02-02T01:51:33;94833.44;;;4.02;100.00
23164;BME280;31429;42.674;23.350;2023-02-02T01:52:35;94827.31;;;4.21;100.00
23164;BME280;31429;42.674;23.350;2023-02-02T01:53:37;94830.91;;;4.03;100.00
23164;BME280;31429;42.674;23.350;2023-02-02T01:54:42;94829.28;;;3.98;100.00
23164;BME280;31429;42.674;23.350;2023-02-02T01:55:43;94828.78;;;4.37;100.00
23164;BME280;31429;42.674;23.350;2023-02-02T01:56:56;94828.59;;;4.54;100.00
23164;BME280;31429;42.674;23.350;2023-02-02T01:58:00;94828.25;;;4.77;100.00
23164;BME280;31429;42.674;23.350;2023-02-02T01:59:04;94828.59;;;4.54;100.00
23164;BME280;31429;42.674;23.350;2023-02-02T02:00:08;94813.00;;;4.19;100.00
23164;BME280;31429;42.674;23.350;2023-02-02T02:01:10;94820.72;;;4.10;100.00
23164;BME280;31429;42.674;23.350;2023-02-02T02:02:11;94824.03;;;4.13;100.00
23164;BME280;31429;42.674;23.350;2023-02-02T02:03:14;94811.66;;;3.90;100.00
23164;BME280;31429;42.674;23.350;2023-02-02T02:04:16;94815.16;;;3.79;100.00
23164;BME280;31429;42.674;23.350;2023-02-02T02:05:23;94811.00;;;3.75;100.00
23164;BME280;31429;42.674;23.350;2023-02-02T02:06:25;94809.56;;;3.49;100.00
23164;BME280;31429;42.674;23.350;2023-02-02T02:07:26;94815.28;;;3.68;100.00
23164;BME280;31429;42.674;23.350;2023-02-02T02:08:30;94812.81;;;3.62;100.00
23164;BME280;31429;42.674;23.350;2023-02-02T02:09:32;94814.53;;;3.59;100.00
23164;BME280;31429;42.674;23.350;2023-02-02T02:10:33;94813.00;;;3.45;100.00
23164;BME280;31429;42.674;23.350;2023-02-02T02:11:34;94818.00;;;3.50;100.00
23164;BME280;31429;42.674;23.350;2023-02-02T02:12:35;94816.41;;;3.43;100.00
23164;BME280;31429;42.674;23.350;2023-02-02T02:13:36;94823.25;;;3.32;100.00
23164;BME280;31429;42.674;23.350;2023-02-02T02:14:58;94823.34;;;3.18;100.00
23164;BME280;31429;42.674;23.350;2023-02-02T02:16:19;94829.66;;;3.65;100.00
23164;BME280;31429;42.674;23.350;2023-02-02T02:17:36;94821.50;;;3.35;100.00
23164;BME280;31429;42.674;23.350;2023-02-02T02:18:46;94822.47;;;3.21;100.00
23164;BME280;31429;42.674;23.350;2023-02-02T02:20:14;94830.94;;;3.15;100.00
23164;BME280;31429;42.674;23.350;2023-02-02T02:21:49;94834.28;;;3.23;100.00
23164;BME280;31429;42.674;23.350;2023-02-02T02:23:31;94825.88;;;3.20;100.00
23164;BME280;31429;42.674;23.350;2023-02-02T02:25:18;94825.66;;;3.41;100.00
23164;BME280;31429;42.674;23.350;2023-02-02T02:27:13;94815.66;;;3.32;100.00
23164;BME280;31429;42.674;23.350;2023-02-02T02:28:33;94824.94;;;3.27;100.00
23164;BME280;31429;42.674;23.350;2023-02-02T02:29:57;94827.31;;;3.43;100.00
23164;BME280;31429;42.674;23.350;2023-02-02T02:32:56;94832.81;;;3.85;100.00
23164;BME280;31429;42.674;23.350;2023-02-02T02:34:06;94819.19;;;3.95;100.00
23164;BME280;31429;42.674;23.350;2023-02-02T02:35:14;94826.94;;;3.83;100.00
23164;BME280;31429;42.674;23.350;2023-02-02T02:36:26;94833.03;;;3.65;100.00
23164;BME280;31429;42.674;23.350;2023-02-02T02:37:37;94832.22;;;3.63;100.00
23164;BME280;31429;42.674;23.350;2023-02-02T02:38:46;94828.16;;;3.45;100.00
23164;BME280;31429;42.674;23.350;2023-02-02T02:39:53;94824.88;;;3.36;100.00
23164;BME280;31429;42.674;23.350;2023-02-02T02:40:58;94820.59;;;3.41;100.00
23164;BME280;31429;42.674;23.350;2023-02-02T02:42:05;94820.50;;;3.55;100.00
23164;BME280;31429;42.674;23.350;2023-02-02T02:43:11;94817.22;;;3.45;100.00
23164;BME280;31429;42.674;23.350;2023-02-02T02:44:15;94821.44;;;3.41;100.00
23164;BME280;31429;42.674;23.350;2023-02-02T02:45:17;94821.31;;;3.57;100.00
23164;BME280;31429;42.674;23.350;2023-02-02T02:46:19;94818.91;;;3.44;100.00
23164;BME280;31429;42.674;23.350;2023-02-02T02:47:20;94818.94;;;3.40;100.00
23164;BME280;31429;42.674;23.350;2023-02-02T02:48:22;94825.72;;;3.36;100.00
23164;BME280;31429;42.674;23.350;2023-02-02T02:49:23;94823.28;;;3.29;100.00
23164;BME280;31429;42.674;23.350;2023-02-02T02:50:24;94816.56;;;3.26;100.00
23164;BME280;31429;42.674;23.350;2023-02-02T02:51:40;94821.59;;;3.25;100.00
23164;BME280;31429;42.674;23.350;2023-02-02T02:52:41;94825.00;;;3.21;100.00
23164;BME280;31429;42.674;23.350;2023-02-02T02:53:42;94816.63;;;3.17;100.00
23164;BME280;31429;42.674;23.350;2023-02-02T02:54:46;94824.97;;;3.24;100.00
23164;BME280;31429;42.674;23.350;2023-02-02T02:55:53;94823.22;;;3.33;100.00
23164;BME280;31429;42.674;23.350;2023-02-02T02:58:44;94815.00;;;3.10;100.00
23164;BME280;31429;42.674;23.350;2023-02-02T02:59:52;94822.59;;;3.07;100.00
23164;BME280;31429;42.674;23.350;2023-02-02T03:01:03;94819.91;;;3.28;100.00
23164;BME280;31429;42.674;23.350;2023-02-02T03:02:20;94820.66;;;3.36;100.00
23164;BME280;31429;42.674;23.350;2023-02-02T03:03:34;94824.16;;;3.22;100.00
23164;BME280;31429;42.674;23.350;2023-02-02T03:04:49;94812.22;;;3.40;100.00
23164;BME280;31429;42.674;23.350;2023-02-02T03:05:59;94817.28;;;3.40;100.00
23164;BME280;31429;42.674;23.350;2023-02-02T03:07:09;94818.94;;;3.41;100.00
23164;BME280;31429;42.674;23.350;2023-02-02T03:08:16;94812.19;;;3.42;100.00
23164;BME280;31429;42.674;23.350;2023-02-02T03:09:22;94810.38;;;3.55;100.00
23164;BME280;31429;42.674;23.350;2023-02-02T03:10:27;94818.81;;;3.54;100.00
23164;BME280;31429;42.674;23.350;2023-02-02T03:11:29;94819.69;;;3.49;100.00
23164;BME280;31429;42.674;23.350;2023-02-02T03:12:30;94813.94;;;3.34;100.00
23164;BME280;31429;42.674;23.350;2023-02-02T03:13:31;94816.50;;;3.29;100.00
23164;BME280;31429;42.674;23.350;2023-02-02T03:14:34;94814.03;;;3.26;100.00
23164;BME280;31429;42.674;23.350;2023-02-02T03:15:35;94822.41;;;3.27;100.00
23164;BME280;31429;42.674;23.350;2023-02-02T03:16:35;94817.38;;;3.28;100.00
23164;BME280;31429;42.674;23.350;2023-02-02T03:17:36;94823.13;;;3.42;100.00
23164;BME280;31429;42.674;23.350;2023-02-02T03:18:38;94813.94;;;3.35;100.00
23164;BME280;31429;42.674;23.350;2023-02-02T03:19:39;94810.34;;;3.59;100.00
23164;BME280;31429;42.674;23.350;2023-02-02T03:20:41;94810.28;;;3.65;100.00
23164;BME280;31429;42.674;23.350;2023-02-02T03:21:42;94817.06;;;3.60;100.00
23164;BME280;31429;42.674;23.350;2023-02-02T03:22:43;94805.41;;;3.47;100.00
23164;BME280;31429;42.674;23.350;2023-02-02T03:23:44;94811.41;;;3.35;100.00
23164;BME280;31429;42.674;23.350;2023-02-02T03:24:44;94808.00;;;3.38;100.00
23164;BME280;31429;42.674;23.350;2023-02-02T03:25:45;94813.84;;;3.44;100.00
23164;BME280;31429;42.674;23.350;2023-02-02T03:26:46;94808.44;;;3.78;100.00
23164;BME280;31429;42.674;23.350;2023-02-02T03:27:46;94812.78;;;3.68;100.00
23164;BME280;31429;42.674;23.350;2023-02-02T03:28:49;94816.94;;;3.69;100.00
23164;BME280;31429;42.674;23.350;2023-02-02T03:29:50;94818.94;;;3.41;100.00
23164;BME280;31429;42.674;23.350;2023-02-02T03:30:51;94813.81;;;3.49;100.00
23164;BME280;31429;42.674;23.350;2023-02-02T03:31:53;94814.69;;;3.43;100.00
23164;BME280;31429;42.674;23.350;2023-02-02T03:32:53;94818.22;;;3.27;100.00
23164;BME280;31429;42.674;23.350;2023-02-02T03:33:55;94811.59;;;3.17;100.00
23164;BME280;31429;42.674;23.350;2023-02-02T03:34:56;94816.63;;;3.16;100.00
23164;BME280;31429;42.674;23.350;2023-02-02T03:35:57;94812.13;;;3.48;100.00
23164;BME280;31429;42.674;23.350;2023-02-02T03:36:57;94824.50;;;3.74;100.00
23164;BME280;31429;42.674;23.350;2023-02-02T03:37:58;94821.31;;;3.57;100.00
23164;BME280;31429;42.674;23.350;2023-02-02T03:38:58;94819.66;;;3.53;100.00
23164;BME280;31429;42.674;23.350;2023-02-02T03:39:59;94808.16;;;3.23;100.00
23164;BME280;31429;42.674;23.350;2023-02-02T03:41:00;94814.06;;;3.23;100.00
23164;BME280;31429;42.674;23.350;2023-02-02T03:42:00;94821.69;;;3.17;100.00
23164;BME280;31429;42.674;23.350;2023-02-02T03:43:01;94821.78;;;3.05;100.00
23164;BME280;31429;42.674;23.350;2023-02-02T03:44:02;94820.13;;;2.98;100.00
23164;BME280;31429;42.674;23.350;2023-02-02T03:45:03;94820.19;;;2.95;100.00
23164;BME280;31429;42.674;23.350;2023-02-02T03:46:04;94822.59;;;3.09;100.00
23164;BME280;31429;42.674;23.350;2023-02-02T03:47:05;94826.72;;;3.16;100.00
23164;BME280;31429;42.674;23.350;2023-02-02T03:48:06;94813.91;;;3.38;100.00
23164;BME280;31429;42.674;23.350;2023-02-02T03:49:08;94829.88;;;3.42;100.00
23164;BME280;31429;42.674;23.350;2023-02-02T03:50:09;94815.31;;;3.64;100.00
23164;BME280;31429;42.674;23.350;2023-02-02T03:51:12;94821.47;;;3.38;100.00
23164;BME280;31429;42.674;23.350;2023-02-02T03:52:13;94818.25;;;3.26;100.00
23164;BME280;31429;42.674;23.350;2023-02-02T03:53:14;94825.91;;;3.17;100.00
23164;BME280;31429;42.674;23.350;2023-02-02T03:54:14;94831.91;;;3.02;100.00
23164;BME280;31429;42.674;23.350;2023-02-02T03:55:15;94823.50;;;3.00;100.00
23164;BME280;31429;42.674;23.350;2023-02-02T03:56:16;94823.94;;;3.46;100.00
23164;BME280;31429;42.674;23.350;2023-02-02T03:57:18;94827.66;;;3.94;100.00
23164;BME280;31429;42.674;23.350;2023-02-02T03:58:19;94826.41;;;3.51;100.00
23164;BME280;31429;42.674;23.350;2023-02-02T03:59:21;94826.00;;;3.03;100.00
23164;BME280;31429;42.674;23.350;2023-02-02T04:00:22;94831.94;;;2.99;100.00
23164;BME280;31429;42.674;23.350;2023-02-02T04:01:26;94829.28;;;3.13;100.00
23164;BME280;31429;42.674;23.350;2023-02-02T04:02:28;94830.16;;;3.12;100.00
23164;BME280;31429;42.674;23.350;2023-02-02T04:03:29;94830.91;;;3.20;100.00
23164;BME280;31429;42.674;23.350;2023-02-02T04:04:31;94825.75;;;3.33;100.00
23164;BME280;31429;42.674;23.350;2023-02-02T04:05:31;94830.91;;;3.20;100.00
23164;BME280;31429;42.674;23.350;2023-02-02T04:06:32;94826.56;;;3.37;100.00
23164;BME280;31429;42.674;23.350;2023-02-02T04:07:33;94826.53;;;3.38;100.00
23164;BME280;31429;42.674;23.350;2023-02-02T04:08:33;94832.69;;;3.09;100.00
23164;BME280;31429;42.674;23.350;2023-02-02T04:09:34;94835.41;;;2.84;100.00
23164;BME280;31429;42.674;23.350;2023-02-02T04:10:34;94839.38;;;3.16;100.00
23164;BME280;31429;42.674;23.350;2023-02-02T04:11:35;94836.44;;;3.60;100.00
23164;BME280;31429;42.674;23.350;2023-02-02T04:12:36;94838.22;;;3.52;100.00
23164;BME280;31429;42.674;23.350;2023-02-02T04:13:36;94837.66;;;3.19;100.00
23164;BME280;31429;42.674;23.350;2023-02-02T04:14:37;94835.91;;;3.24;100.00
23164;BME280;31429;42.674;23.350;2023-02-02T04:15:38;94829.25;;;3.20;100.00
23164;BME280;31429;42.674;23.350;2023-02-02T04:16:39;94833.94;;;3.57;100.00
23164;BME280;31429;42.674;23.350;2023-02-02T04:17:40;94830.47;;;3.67;100.00
23164;BME280;31429;42.674;23.350;2023-02-02T04:18:40;94828.25;;;3.36;100.00
23164;BME280;31429;42.674;23.350;2023-02-02T04:19:42;94834.38;;;3.07;100.00
23164;BME280;31429;42.674;23.350;2023-02-02T04:20:43;94834.34;;;3.10;100.00
23164;BME280;31429;42.674;23.350;2023-02-02T04:21:44;94844.41;;;3.20;100.00
23164;BME280;31429;42.674;23.350;2023-02-02T04:22:44;94839.94;;;3.43;100.00
23164;BME280;31429;42.674;23.350;2023-02-02T04:23:45;94838.44;;;3.24;100.00
23164;BME280;31429;42.674;23.350;2023-02-02T04:24:46;94846.16;;;3.08;100.00
23164;BME280;31429;42.674;23.350;2023-02-02T04:25:48;94838.72;;;2.94;100.00
23164;BME280;31429;42.674;23.350;2023-02-02T04:26:49;94838.53;;;3.14;100.00
23164;BME280;31429;42.674;23.350;2023-02-02T04:27:49;94841.25;;;2.91;100.00
23164;BME280;31429;42.674;23.350;2023-02-02T04:28:50;94847.22;;;2.81;100.00
23164;BME280;31429;42.674;23.350;2023-02-02T04:29:51;94840.31;;;3.01;100.00
23164;BME280;31429;42.674;23.350;2023-02-02T04:30:52;94836.97;;;3.01;100.00
23164;BME280;31429;42.674;23.350;2023-02-02T04:31:53;94843.78;;;2.89;100.00
23164;BME280;31429;42.674;23.350;2023-02-02T04:32:54;94843.94;;;2.65;100.00
23164;BME280;31429;42.674;23.350;2023-02-02T04:33:55;94845.66;;;2.59;100.00
23164;BME280;31429;42.674;23.350;2023-02-02T04:34:57;94840.66;;;2.51;100.00
23164;BME280;31429;42.674;23.350;2023-02-02T04:35:57;94837.09;;;2.85;100.00
23164;BME280;31429;42.674;23.350;2023-02-02T04:36:58;94838.78;;;2.82;100.00
23164;BME280;31429;42.674;23.350;2023-02-02T04:37:58;94843.84;;;2.83;100.00
23164;BME280;31429;42.674;23.350;2023-02-02T04:38:59;94833.75;;;2.80;100.00
23164;BME280;31429;42.674;23.350;2023-02-02T04:40:00;94838.03;;;2.72;100.00
23164;BME280;31429;42.674;23.350;2023-02-02T04:41:05;94836.44;;;2.56;100.00
23164;BME280;31429;42.674;23.350;2023-02-02T04:42:06;94838.13;;;2.57;100.00
23164;BME280;31429;42.674;23.350;2023-02-02T04:43:07;94845.66;;;2.59;100.00
23164;BME280;31429;42.674;23.350;2023-02-02T04:44:12;94844.88;;;2.51;100.00
23164;BME280;31429;42.674;23.350;2023-02-02T04:45:14;94847.44;;;2.42;100.00
23164;BME280;31429;42.674;23.350;2023-02-02T04:46:15;94855.03;;;2.36;100.00
23164;BME280;31429;42.674;23.350;2023-02-02T04:47:15;94858.44;;;2.35;100.00
23164;BME280;31429;42.674;23.350;2023-02-02T04:48:16;94859.25;;;2.33;100.00
23164;BME280;31429;42.674;23.350;2023-02-02T04:49:16;94855.09;;;2.33;100.00
23164;BME280;31429;42.674;23.350;2023-02-02T04:50:19;94851.69;;;2.35;100.00
23164;BME280;31429;42.674;23.350;2023-02-02T04:51:19;94852.50;;;2.40;100.00
23164;BME280;31429;42.674;23.350;2023-02-02T04:52:20;94849.19;;;2.30;100.00
23164;BME280;31429;42.674;23.350;2023-02-02T04:53:20;94849.22;;;2.21;100.00
23164;BME280;31429;42.674;23.350;2023-02-02T04:54:21;94853.38;;;2.35;100.00
23164;BME280;31429;42.674;23.350;2023-02-02T04:55:23;94856.75;;;2.30;100.00
23164;BME280;31429;42.674;23.350;2023-02-02T04:56:23;94850.09;;;2.16;100.00
23164;BME280;31429;42.674;23.350;2023-02-02T04:57:24;94847.59;;;2.14;100.00
23164;BME280;31429;42.674;23.350;2023-02-02T04:58:25;94847.56;;;2.20;100.00
23164;BME280;31429;42.674;23.350;2023-02-02T04:59:27;94849.25;;;2.17;100.00
23164;BME280;31429;42.674;23.350;2023-02-02T05:00:28;94850.94;;;2.15;100.00
23164;BME280;31429;42.674;23.350;2023-02-02T05:01:28;94853.50;;;2.12;100.00
23164;BME280;31429;42.674;23.350;2023-02-02T05:02:30;94851.72;;;2.32;100.00
23164;BME280;31429;42.674;23.350;2023-02-02T05:03:30;94853.41;;;2.28;100.00
23164;BME280;31429;42.674;23.350;2023-02-02T05:04:31;94853.31;;;2.45;100.00
23164;BME280;31429;42.674;23.350;2023-02-02T05:05:33;94847.47;;;2.36;100.00
23164;BME280;31429;42.674;23.350;2023-02-02T05:06:34;94850.94;;;2.15;100.00
23164;BME280;31429;42.674;23.350;2023-02-02T05:07:34;94852.66;;;2.08;100.00
23164;BME280;31429;42.674;23.350;2023-02-02T05:08:36;94843.41;;;2.07;100.00
23164;BME280;31429;42.674;23.350;2023-02-02T05:09:36;94858.53;;;2.12;100.00
23164;BME280;31429;42.674;23.350;2023-02-02T05:10:39;94864.41;;;2.12;100.00
23164;BME280;31429;42.674;23.350;2023-02-02T05:11:40;94856.91;;;1.97;100.00
23164;BME280;31429;42.674;23.350;2023-02-02T05:12:43;94858.50;;;2.16;100.00
23164;BME280;31429;42.674;23.350;2023-02-02T05:13:45;94855.97;;;2.16;100.00
23164;BME280;31429;42.674;23.350;2023-02-02T05:14:45;94847.59;;;2.08;100.00
23164;BME280;31429;42.674;23.350;2023-02-02T05:15:46;94849.25;;;2.14;100.00
23164;BME280;31429;42.674;23.350;2023-02-02T05:16:47;94847.56;;;2.19;100.00
23164;BME280;31429;42.674;23.350;2023-02-02T05:17:49;94847.47;;;2.39;100.00
23164;BME280;31429;42.674;23.350;2023-02-02T05:18:51;94853.34;;;2.41;100.00
23164;BME280;31429;42.674;23.350;2023-02-02T05:19:52;94851.75;;;2.23;100.00
23164;BME280;31429;42.674;23.350;2023-02-02T05:20:54;94844.25;;;2.08;100.00
23164;BME280;31429;42.674;23.350;2023-02-02T05:21:54;94840.94;;;2.01;100.00
23164;BME280;31429;42.674;23.350;2023-02-02T05:22:55;94843.47;;;1.98;100.00
23164;BME280;31429;42.674;23.350;2023-02-02T05:23:56;94837.56;;;1.98;100.00
23164;BME280;31429;42.674;23.350;2023-02-02T05:24:57;94850.22;;;1.77;100.00
23164;BME280;31429;42.674;23.350;2023-02-02T05:25:57;94849.41;;;1.78;100.00
23164;BME280;31429;42.674;23.350;2023-02-02T05:26:58;94848.56;;;1.80;100.00
23164;BME280;31429;42.674;23.350;2023-02-02T05:28:00;94846.84;;;1.90;100.00
23164;BME280;31429;42.674;23.350;2023-02-02T05:29:01;94846.88;;;1.87;100.00
23164;BME280;31429;42.674;23.350;2023-02-02T05:30:02;94840.13;;;1.86;100.00
23164;BME280;31429;42.674;23.350;2023-02-02T05:31:04;94838.34;;;2.07;100.00
23164;BME280;31429;42.674;23.350;2023-02-02T05:32:06;94846.78;;;2.02;100.00
23164;BME280;31429;42.674;23.350;2023-02-02T05:33:06;94845.06;;;2.14;100.00
23164;BME280;31429;42.674;23.350;2023-02-02T05:34:07;94850.25;;;1.78;100.00